createdAt,value
2019-04-16T00:01:02.627Z,9.54
2019-04-16T00:03:34.396Z,9.54
2019-04-16T00:06:16.643Z,9.46
2019-04-16T00:09:02.035Z,9.43
2019-04-16T00:11:57.411Z,9.25
2019-04-16T00:14:34.688Z,8.86
2019-04-16T00:17:07.010Z,8.88
2019-04-16T00:19:38.789Z,9.13
2019-04-16T00:22:21.029Z,9.33
2019-04-16T00:24:55.044Z,9.16
2019-04-16T00:27:28.724Z,9.28
2019-04-16T00:30:04.899Z,9.09
2019-04-16T00:32:38.038Z,9.19
2019-04-16T00:35:15.397Z,9.00
2019-04-16T00:37:44.475Z,9.01
2019-04-16T00:40:16.229Z,8.83
2019-04-16T00:42:47.973Z,8.63
2019-04-16T00:45:19.749Z,8.46
2019-04-16T00:47:52.158Z,8.37
2019-04-16T00:50:24.124Z,8.30
2019-04-16T00:52:55.956Z,8.26
2019-04-16T00:55:28.004Z,8.27
2019-04-16T00:57:59.800Z,8.26
2019-04-16T01:00:32.668Z,8.30
2019-04-16T01:03:05.248Z,8.30
2019-04-16T01:05:36.983Z,8.26
2019-04-16T01:08:08.725Z,8.25
2019-04-16T01:10:40.486Z,8.24
2019-04-16T01:13:12.315Z,8.23
2019-04-16T01:15:44.166Z,8.22
2019-04-16T01:18:15.925Z,8.23
2019-04-16T01:20:47.942Z,8.27
2019-04-16T01:23:19.748Z,8.41
2019-04-16T01:25:56.184Z,8.50
2019-04-16T01:28:31.995Z,8.53
2019-04-16T01:31:14.780Z,8.56
2019-04-16T01:34:23.630Z,8.60
2019-04-16T01:37:25.807Z,8.76
2019-04-16T01:39:58.138Z,8.74
2019-04-16T01:42:29.903Z,8.67
2019-04-16T01:45:02.876Z,8.62
2019-04-16T01:47:37.106Z,8.47
2019-04-16T01:50:12.923Z,8.32
2019-04-16T01:52:42.243Z,8.16
2019-04-16T01:55:14.094Z,8.10
2019-04-16T01:57:48.629Z,7.97
2019-04-16T02:00:22.198Z,7.81
2019-04-16T02:02:54.001Z,7.74
2019-04-16T02:05:25.720Z,7.68
2019-04-16T02:07:59.245Z,7.63
2019-04-16T02:10:31.155Z,7.70
2019-04-16T02:13:04.302Z,7.63
2019-04-16T02:15:36.069Z,7.69
2019-04-16T02:18:08.221Z,7.83
2019-04-16T02:20:40.259Z,7.96
2019-04-16T02:23:13.553Z,8.11
2019-04-16T02:25:45.481Z,8.05
2019-04-16T02:28:17.324Z,8.12
2019-04-16T02:30:50.372Z,8.16
2019-04-16T02:33:22.165Z,8.08
2019-04-16T02:35:54.102Z,8.00
2019-04-16T02:38:28.135Z,7.96
2019-04-16T02:40:59.899Z,7.93
2019-04-16T02:43:39.697Z,7.97
2019-04-16T02:46:07.459Z,8.06
2019-04-16T02:48:41.980Z,7.97
2019-04-16T02:51:22.088Z,7.88
2019-04-16T02:54:13.191Z,7.91
2019-04-16T02:57:12.958Z,8.01
2019-04-16T02:59:47.383Z,8.20
2019-04-16T03:02:40.075Z,8.00
2019-04-16T03:05:37.997Z,7.66
2019-04-16T03:08:10.068Z,7.50
2019-04-16T03:10:44.613Z,7.40
2019-04-16T03:13:15.673Z,7.39
2019-04-16T03:15:56.353Z,7.37
2019-04-16T03:18:36.778Z,7.33
2019-04-16T03:21:08.534Z,7.26
2019-04-16T03:23:40.531Z,7.25
2019-04-16T03:26:16.365Z,7.31
2019-04-16T03:28:45.821Z,7.27
2019-04-16T03:31:22.139Z,7.29
2019-04-16T03:33:51.454Z,7.29
2019-04-16T03:36:23.204Z,7.30
2019-04-16T03:38:55.040Z,7.36
2019-04-16T03:41:26.810Z,7.49
2019-04-16T03:44:03.630Z,7.56
2019-04-16T03:46:33.281Z,7.67
2019-04-16T03:49:05.267Z,7.88
2019-04-16T03:51:38.155Z,7.79
2019-04-16T03:54:09.951Z,7.59
2019-04-16T03:56:42.134Z,7.54
2019-04-16T03:59:13.936Z,7.58
2019-04-16T04:01:46.877Z,7.50
2019-04-16T04:04:18.876Z,7.52
2019-04-16T04:06:50.967Z,7.46
2019-04-16T04:09:23.012Z,7.16
2019-04-16T04:11:54.815Z,7.36
2019-04-16T04:14:26.671Z,7.25
2019-04-16T04:17:05.413Z,7.18
2019-04-16T04:19:33.988Z,7.16
2019-04-16T04:22:05.803Z,7.20
2019-04-16T04:24:37.544Z,7.18
2019-04-16T04:27:12.840Z,7.19
2019-04-16T04:29:46.137Z,7.13
2019-04-16T04:32:18.004Z,7.09
2019-04-16T04:34:51.665Z,7.11
2019-04-16T04:37:23.516Z,7.10
2019-04-16T04:39:55.301Z,7.22
2019-04-16T04:42:28.360Z,7.16
2019-04-16T04:45:08.421Z,7.10
2019-04-16T04:47:36.846Z,7.20
2019-04-16T04:50:08.687Z,7.20
2019-04-16T04:52:40.489Z,7.15
2019-04-16T04:55:12.266Z,7.29
2019-04-16T04:57:44.131Z,7.08
2019-04-16T05:00:15.867Z,7.16
2019-04-16T05:02:47.626Z,7.28
2019-04-16T05:05:25.742Z,7.28
2019-04-16T05:08:00.013Z,7.18
2019-04-16T05:10:31.527Z,7.16
2019-04-16T05:13:04.109Z,7.23
2019-04-16T05:15:35.922Z,7.16
2019-04-16T05:18:09.759Z,7.00
2019-04-16T05:20:41.393Z,7.01
2019-04-16T05:23:14.138Z,7.15
2019-04-16T05:25:47.506Z,7.22
2019-04-16T05:28:19.277Z,7.19
2019-04-16T05:30:52.182Z,7.25
2019-04-16T05:33:24.992Z,7.25
2019-04-16T05:35:59.347Z,7.28
2019-04-16T05:38:30.310Z,7.26
2019-04-16T05:41:13.219Z,7.22
2019-04-16T05:43:38.525Z,7.28
2019-04-16T05:46:10.357Z,7.35
2019-04-16T05:48:42.167Z,7.30
2019-04-16T05:51:15.831Z,7.36
2019-04-16T05:53:51.709Z,7.49
2019-04-16T05:56:31.491Z,7.43
2019-04-16T05:59:04.588Z,7.27
2019-04-16T06:01:59.230Z,7.06
2019-04-16T06:04:30.971Z,7.03
2019-04-16T06:07:07.449Z,6.93
2019-04-16T06:09:38.264Z,6.96
2019-04-16T06:12:10.245Z,6.95
2019-04-16T06:14:51.468Z,6.95
2019-04-16T06:17:51.188Z,6.94
2019-04-16T06:20:53.029Z,7.10
2019-04-16T06:23:32.667Z,7.29
2019-04-16T06:26:24.136Z,7.45
2019-04-16T06:29:03.686Z,7.54
2019-04-16T06:31:41.891Z,7.64
2019-04-16T06:34:41.508Z,7.69
2019-04-16T06:37:21.554Z,7.81
2019-04-16T06:40:12.279Z,7.93
2019-04-16T06:42:51.443Z,8.13
2019-04-16T06:45:45.046Z,8.31
2019-04-16T06:48:25.483Z,9.07
2019-04-16T06:51:25.226Z,9.13
2019-04-16T06:54:32.843Z,9.08
2019-04-16T06:57:22.906Z,8.89
2019-04-16T07:00:13.563Z,9.10
2019-04-16T07:03:03.128Z,9.28
2019-04-16T07:05:42.078Z,9.55
2019-04-16T07:08:36.945Z,9.68
2019-04-16T07:11:00.438Z,9.67
2019-04-16T07:13:32.851Z,9.82
2019-04-16T07:16:05.323Z,9.99
2019-04-16T07:18:39.686Z,9.90
2019-04-16T07:21:11.489Z,10.13
2019-04-16T07:23:46.430Z,11.38
2019-04-16T07:26:17.313Z,12.34
2019-04-16T07:29:07.929Z,12.69
2019-04-16T07:31:48.109Z,13.23
2019-04-16T07:34:33.470Z,13.70
2019-04-16T07:37:24.127Z,14.46
2019-04-16T07:40:14.925Z,14.28
2019-04-16T07:42:59.027Z,14.61
2019-04-16T07:45:39.047Z,15.60
2019-04-16T07:48:28.342Z,16.29
2019-04-16T07:51:17.869Z,16.11
2019-04-16T07:54:11.639Z,15.51
2019-04-16T07:56:46.339Z,16.91
2019-04-16T07:59:18.135Z,17.13
2019-04-16T08:01:49.948Z,18.04
2019-04-16T08:04:28.993Z,18.15
2019-04-16T08:07:00.758Z,18.15
2019-04-16T08:09:33.896Z,18.66
2019-04-16T08:12:10.833Z,18.57
2019-04-16T08:14:39.165Z,17.51
2019-04-16T08:17:10.978Z,17.93
2019-04-16T08:19:44.812Z,17.33
2019-04-16T08:22:16.795Z,18.35
2019-04-16T08:24:57.211Z,18.60
2019-04-16T08:27:27.035Z,19.22
2019-04-16T08:30:02.123Z,19.61
2019-04-16T08:32:34.364Z,20.37
2019-04-16T08:35:08.450Z,20.86
2019-04-16T08:37:48.928Z,21.17
2019-04-16T08:40:15.481Z,19.68
2019-04-16T08:42:47.682Z,20.99
2019-04-16T08:45:20.794Z,21.24
2019-04-16T08:47:52.909Z,20.79
2019-04-16T08:50:26.269Z,21.53
2019-04-16T08:52:58.571Z,21.31
2019-04-16T08:55:31.845Z,21.38
2019-04-16T08:58:06.312Z,20.51
2019-04-16T09:00:39.177Z,21.52
2019-04-16T09:03:11.428Z,22.13
2019-04-16T09:05:43.686Z,22.93
2019-04-16T09:08:37.873Z,22.71
2019-04-16T09:11:22.338Z,22.49
2019-04-16T09:13:48.521Z,23.10
2019-04-16T09:16:21.341Z,23.31
2019-04-16T09:19:12.741Z,23.50
2019-04-16T09:21:44.927Z,23.25
2019-04-16T09:24:40.186Z,23.62
2019-04-16T09:27:28.597Z,23.67
2019-04-16T09:30:35.085Z,23.08
2019-04-16T09:33:30.438Z,22.59
2019-04-16T09:36:09.737Z,23.63
2019-04-16T09:38:55.110Z,23.95
2019-04-16T09:41:55.501Z,24.09
2019-04-16T09:44:32.467Z,23.69
2019-04-16T09:47:05.398Z,21.04
2019-04-16T09:49:38.944Z,23.02
2019-04-16T09:52:11.731Z,24.02
2019-04-16T09:54:45.181Z,24.25
2019-04-16T09:57:17.824Z,24.14
2019-04-16T09:59:54.149Z,24.49
2019-04-16T10:02:31.717Z,25.16
2019-04-16T10:05:04.470Z,25.14
2019-04-16T10:07:39.746Z,24.59
2019-04-16T10:10:10.472Z,23.63
2019-04-16T10:12:43.376Z,25.15
2019-04-16T10:15:16.650Z,25.78
2019-04-16T10:17:51.286Z,25.86
2019-04-16T10:20:24.991Z,24.21
2019-04-16T10:22:59.256Z,25.76
2019-04-16T10:25:33.637Z,25.48
2019-04-16T10:28:20.382Z,26.77
2019-04-16T10:30:54.763Z,25.17
2019-04-16T10:33:28.143Z,25.53
2019-04-16T10:36:04.655Z,24.91
2019-04-16T10:39:02.338Z,21.96
2019-04-16T10:41:49.598Z,23.98
2019-04-16T10:44:39.550Z,25.20
2019-04-16T10:47:48.987Z,23.73
2019-04-16T10:50:33.903Z,23.05
2019-04-16T10:53:43.841Z,22.48
2019-04-16T10:56:40.521Z,24.18
2019-04-16T10:59:30.406Z,24.41
2019-04-16T11:02:41.039Z,24.86
2019-04-16T11:05:36.862Z,23.52
2019-04-16T11:08:13.186Z,25.16
2019-04-16T11:10:45.807Z,23.09
2019-04-16T11:13:28.701Z,22.01
2019-04-16T11:16:05.987Z,23.59
2019-04-16T11:18:41.107Z,22.34
2019-04-16T11:21:13.927Z,23.12
2019-04-16T11:23:47.481Z,22.11
2019-04-16T11:26:20.385Z,22.87
2019-04-16T11:28:52.425Z,22.78
2019-04-16T11:31:27.072Z,22.48
2019-04-16T11:33:58.454Z,22.32
2019-04-16T11:36:31.641Z,22.99
2019-04-16T11:39:05.823Z,22.45
2019-04-16T11:41:37.902Z,23.24
2019-04-16T11:44:15.634Z,22.65
2019-04-16T11:46:43.487Z,23.77
2019-04-16T11:49:18.427Z,21.95
2019-04-16T11:51:50.397Z,21.93
2019-04-16T11:54:22.139Z,23.45
2019-04-16T11:56:59.455Z,22.79
2019-04-16T11:59:29.475Z,22.53
2019-04-16T12:02:10.649Z,23.30
2019-04-16T12:05:00.842Z,22.92
2019-04-16T12:07:40.894Z,21.85
2019-04-16T12:10:30.514Z,22.74
2019-04-16T12:13:22.039Z,22.62
2019-04-16T12:16:13.628Z,21.53
2019-04-16T12:19:02.967Z,21.61
2019-04-16T12:21:49.587Z,22.18
2019-04-16T12:24:39.860Z,22.40
2019-04-16T12:27:39.374Z,22.29
2019-04-16T12:30:34.378Z,22.29
2019-04-16T12:33:25.002Z,21.63
2019-04-16T12:36:15.673Z,21.82
2019-04-16T12:38:59.027Z,23.02
2019-04-16T12:41:39.075Z,23.62
2019-04-16T12:44:25.348Z,23.08
2019-04-16T12:47:08.215Z,23.51
2019-04-16T12:49:44.727Z,22.90
2019-04-16T12:52:44.494Z,23.23
2019-04-16T12:55:38.497Z,22.95
2019-04-16T12:58:20.113Z,23.42
2019-04-16T13:01:23.271Z,23.63
2019-04-16T13:04:02.884Z,22.54
2019-04-16T13:06:53.418Z,22.66
2019-04-16T13:09:46.844Z,22.75
2019-04-16T13:12:40.361Z,23.09
2019-04-16T13:15:31.912Z,23.39
2019-04-16T13:18:16.987Z,22.85
2019-04-16T13:21:06.359Z,22.81
2019-04-16T13:24:03.135Z,22.78
2019-04-16T13:26:41.307Z,23.12
2019-04-16T13:29:18.299Z,23.70
2019-04-16T13:31:50.125Z,23.77
2019-04-16T13:34:22.396Z,24.05
2019-04-16T13:36:59.230Z,23.88
2019-04-16T13:40:05.425Z,22.64
2019-04-16T13:42:37.428Z,22.50
2019-04-16T13:45:28.343Z,22.02
2019-04-16T13:48:15.373Z,22.62
2019-04-16T13:50:43.019Z,23.06
2019-04-16T13:53:31.721Z,22.17
2019-04-16T13:56:25.339Z,22.50
2019-04-16T13:59:07.808Z,22.90
2019-04-16T14:01:46.151Z,23.35
2019-04-16T14:04:18.369Z,23.59
2019-04-16T14:06:52.278Z,23.66
2019-04-16T14:09:24.041Z,22.66
2019-04-16T14:11:55.811Z,21.81
2019-04-16T14:14:27.588Z,21.32
2019-04-16T14:17:09.073Z,21.44
2019-04-16T14:19:34.736Z,21.48
2019-04-16T14:22:07.834Z,21.38
2019-04-16T14:24:39.636Z,21.65
2019-04-16T14:27:13.965Z,21.96
2019-04-16T14:29:45.622Z,22.50
2019-04-16T14:32:18.659Z,22.53
2019-04-16T14:34:57.205Z,22.31
2019-04-16T14:37:28.975Z,22.42
2019-04-16T14:40:20.775Z,22.66
2019-04-16T14:42:57.463Z,22.33
2019-04-16T14:45:50.089Z,22.28
2019-04-16T14:48:09.636Z,21.98
2019-04-16T14:50:41.010Z,21.88
2019-04-16T14:53:16.166Z,22.33
2019-04-16T14:56:00.474Z,22.64
2019-04-16T14:58:58.736Z,22.80
2019-04-16T15:01:42.408Z,23.24
2019-04-16T15:04:43.153Z,22.65
2019-04-16T15:07:27.840Z,22.86
2019-04-16T15:10:17.345Z,23.08
2019-04-16T15:13:11.084Z,22.24
2019-04-16T15:16:10.721Z,22.99
2019-04-16T15:19:03.142Z,23.05
2019-04-16T15:22:09.759Z,22.42
2019-04-16T15:25:12.489Z,22.94
2019-04-16T15:27:49.861Z,22.40
2019-04-16T15:31:01.879Z,22.56
2019-04-16T15:33:39.017Z,22.27
2019-04-16T15:36:18.441Z,22.23
2019-04-16T15:39:02.952Z,22.55
2019-04-16T15:41:53.434Z,22.57
2019-04-16T15:44:52.610Z,22.76
2019-04-16T15:48:00.675Z,22.91
2019-04-16T15:50:49.984Z,22.53
2019-04-16T15:53:55.820Z,22.53
2019-04-16T15:56:46.390Z,22.64
2019-04-16T15:59:28.860Z,22.73
2019-04-16T16:02:31.644Z,22.55
2019-04-16T16:05:12.977Z,22.14
2019-04-16T16:08:02.729Z,22.48
2019-04-16T16:10:45.136Z,22.46
2019-04-16T16:13:14.680Z,21.93
2019-04-16T16:15:46.436Z,22.02
2019-04-16T16:18:18.236Z,22.01
2019-04-16T16:20:50.045Z,21.88
2019-04-16T16:23:22.422Z,21.76
2019-04-16T16:25:54.344Z,21.70
2019-04-16T16:28:26.149Z,21.56
2019-04-16T16:31:00.412Z,21.54
2019-04-16T16:33:33.835Z,21.41
2019-04-16T16:36:06.590Z,21.35
2019-04-16T16:38:38.727Z,21.42
2019-04-16T16:41:10.621Z,21.39
2019-04-16T16:43:44.750Z,21.54
2019-04-16T16:46:55.751Z,21.63
2019-04-16T16:49:14.958Z,21.47
2019-04-16T16:52:08.691Z,21.51
2019-04-16T16:54:40.892Z,21.19
2019-04-16T16:57:22.132Z,21.26
2019-04-16T17:00:09.898Z,21.16
2019-04-16T17:02:50.589Z,21.19
2019-04-16T17:05:31.345Z,20.96
2019-04-16T17:08:04.658Z,21.00
2019-04-16T17:10:36.412Z,20.81
2019-04-16T17:13:13.309Z,20.91
2019-04-16T17:15:41.671Z,20.73
2019-04-16T17:18:13.794Z,20.75
2019-04-16T17:20:45.537Z,21.05
2019-04-16T17:23:17.385Z,20.36
2019-04-16T17:25:52.290Z,20.35
2019-04-16T17:28:24.144Z,20.17
2019-04-16T17:30:56.317Z,20.08
2019-04-16T17:33:28.077Z,20.13
2019-04-16T17:35:59.896Z,19.89
2019-04-16T17:38:33.845Z,20.06
2019-04-16T17:41:09.644Z,19.93
2019-04-16T17:44:04.069Z,19.61
2019-04-16T17:47:07.045Z,19.69
2019-04-16T17:49:50.558Z,19.48
2019-04-16T17:52:47.304Z,19.43
2019-04-16T17:55:46.875Z,19.21
2019-04-16T17:58:27.388Z,19.04
2019-04-16T18:01:24.293Z,18.49
2019-04-16T18:04:13.826Z,18.26
2019-04-16T18:06:55.754Z,17.98
2019-04-16T18:09:36.359Z,17.75
2019-04-16T18:12:30.148Z,17.59
2019-04-16T18:15:09.673Z,17.59
2019-04-16T18:18:06.926Z,17.52
2019-04-16T18:21:15.885Z,17.24
2019-04-16T18:24:12.113Z,17.19
2019-04-16T18:27:05.738Z,17.06
2019-04-16T18:29:51.542Z,17.03
2019-04-16T18:32:45.242Z,16.95
2019-04-16T18:35:23.643Z,16.85
2019-04-16T18:38:08.147Z,16.86
2019-04-16T18:41:20.923Z,16.73
2019-04-16T18:44:11.779Z,16.64
2019-04-16T18:47:10.798Z,16.58
2019-04-16T18:49:43.438Z,16.51
2019-04-16T18:52:15.457Z,16.50
2019-04-16T18:54:49.333Z,16.45
2019-04-16T18:57:20.847Z,16.45
2019-04-16T18:59:52.718Z,16.42
2019-04-16T19:02:27.467Z,16.30
2019-04-16T19:04:59.563Z,16.25
2019-04-16T19:07:33.321Z,16.16
2019-04-16T19:10:06.048Z,16.18
2019-04-16T19:12:39.084Z,16.06
2019-04-16T19:15:10.951Z,15.93
2019-04-16T19:17:42.946Z,15.88
2019-04-16T19:20:17.801Z,15.81
2019-04-16T19:22:52.051Z,15.97
2019-04-16T19:25:23.978Z,15.89
2019-04-16T19:27:55.960Z,15.77
2019-04-16T19:30:30.996Z,15.77
2019-04-16T19:33:04.180Z,15.73
2019-04-16T19:35:38.309Z,15.66
2019-04-16T19:38:10.604Z,15.60
2019-04-16T19:40:42.588Z,15.44
2019-04-16T19:43:14.438Z,15.54
2019-04-16T19:45:46.480Z,15.47
2019-04-16T19:48:34.548Z,15.36
2019-04-16T19:50:56.823Z,15.49
2019-04-16T19:53:28.728Z,15.59
2019-04-16T19:56:00.723Z,15.48
2019-04-16T19:58:33.570Z,15.28
2019-04-16T20:01:11.731Z,15.35
2019-04-16T20:03:43.621Z,15.33
2019-04-16T20:06:19.294Z,15.12
2019-04-16T20:08:51.756Z,14.87
2019-04-16T20:11:23.597Z,14.96
2019-04-16T20:13:55.536Z,15.07
2019-04-16T20:16:28.293Z,14.95
2019-04-16T20:19:00.324Z,14.91
2019-04-16T20:21:37.491Z,14.90
2019-04-16T20:24:07.725Z,14.95
2019-04-16T20:26:40.568Z,14.82
2019-04-16T20:29:14.471Z,14.72
2019-04-16T20:31:46.334Z,14.80
2019-04-16T20:34:18.499Z,14.75
2019-04-16T20:36:52.226Z,14.71
2019-04-16T20:39:25.392Z,14.63
2019-04-16T20:41:59.879Z,14.57
2019-04-16T20:44:33.825Z,14.33
2019-04-16T20:47:08.359Z,14.31
2019-04-16T20:49:40.631Z,14.43
2019-04-16T20:52:12.920Z,14.49
2019-04-16T20:54:50.487Z,14.43
2019-04-16T20:57:25.340Z,14.42
2019-04-16T20:59:55.990Z,14.34
2019-04-16T21:02:29.516Z,14.38
2019-04-16T21:05:04.378Z,14.23
2019-04-16T21:07:36.189Z,14.02
2019-04-16T21:10:08.872Z,13.96
2019-04-16T21:12:45.079Z,13.90
2019-04-16T21:15:14.871Z,13.72
2019-04-16T21:17:46.678Z,13.71
2019-04-16T21:20:20.274Z,13.97
2019-04-16T21:22:53.017Z,13.97
2019-04-16T21:25:26.502Z,13.93
2019-04-16T21:28:24.451Z,13.79
2019-04-16T21:31:00.791Z,13.82
2019-04-16T21:33:49.187Z,13.96
2019-04-16T21:36:33.923Z,13.86
2019-04-16T21:39:09.321Z,13.94
2019-04-16T21:41:42.701Z,13.89
2019-04-16T21:44:14.554Z,13.80
2019-04-16T21:46:46.350Z,13.55
2019-04-16T21:49:18.190Z,13.28
2019-04-16T21:52:08.527Z,13.58
2019-04-16T21:54:40.375Z,13.45
2019-04-16T21:57:13.620Z,13.42
2019-04-16T21:59:45.738Z,13.39
2019-04-16T22:02:37.845Z,13.22
2019-04-16T22:05:10.989Z,13.25
2019-04-16T22:07:42.944Z,13.40
2019-04-16T22:10:14.904Z,13.25
2019-04-16T22:12:47.611Z,13.30
2019-04-16T22:15:25.181Z,13.33
2019-04-16T22:17:53.969Z,13.16
2019-04-16T22:20:25.815Z,12.73
2019-04-16T22:22:57.625Z,12.68
2019-04-16T22:25:29.447Z,12.85
2019-04-16T22:28:03.551Z,12.87
2019-04-16T22:30:35.303Z,12.81
2019-04-16T22:33:08.940Z,12.80
2019-04-16T22:35:41.026Z,12.79
2019-04-16T22:38:14.410Z,12.72
2019-04-16T22:41:05.108Z,12.74
2019-04-16T22:43:53.758Z,12.61
2019-04-16T22:46:44.380Z,12.75
2019-04-16T22:49:18.569Z,12.65
2019-04-16T22:51:50.189Z,12.65
2019-04-16T22:54:21.948Z,12.60
2019-04-16T22:57:02.663Z,12.46
2019-04-16T22:59:39.113Z,12.42
2019-04-16T23:02:18.378Z,12.40
2019-04-16T23:04:50.113Z,12.31
2019-04-16T23:07:21.855Z,12.42
2019-04-16T23:09:53.717Z,12.31
2019-04-16T23:12:28.101Z,12.29
2019-04-16T23:14:59.056Z,12.12
2019-04-16T23:17:46.160Z,12.24
2019-04-16T23:20:28.710Z,12.24
2019-04-16T23:22:50.420Z,12.26
2019-04-16T23:25:44.511Z,12.28
2019-04-16T23:28:16.473Z,12.47
2019-04-16T23:30:51.299Z,12.38
2019-04-16T23:33:23.752Z,12.35
2019-04-16T23:35:55.478Z,12.43
2019-04-16T23:38:31.192Z,12.33
2019-04-16T23:41:03.234Z,12.35
2019-04-16T23:44:10.599Z,12.36
2019-04-16T23:47:16.205Z,12.34
2019-04-16T23:49:54.478Z,12.37
2019-04-16T23:52:39.035Z,12.25
2019-04-16T23:55:21.395Z,12.31
2019-04-16T23:58:06.670Z,12.37
